Time;durP1;ratioP1;P1;durP2;ratioP2;P2;SDS_P1;SDS_P2;PMS_P1;PMS_P2;Temp;Humidity;BMP_temperature;BMP_pressure;BME280_temperature;BME280_humidity;BME280_pressure;Samples;Min_cycle;Max_cycle;Signal;HPM_P1;HPM_P2
2022/09/21 00:01:50;;;;;;;;;19.00;17.00;;;;;14.53;61.61;99070.69;6261418;27;97467;-65
2022/09/21 00:04:55;;;;;;;;;23.80;21.00;;;;;14.55;61.37;99071.28;6262614;27;96311;-65
2022/09/21 00:08:02;;;;;;;;;18.00;18.00;;;;;14.50;61.83;99071.19;6250898;27;96659;-64
2022/09/21 00:11:07;;;;;;;;;21.60;20.60;;;;;14.48;61.67;99054.31;6243919;27;97407;-66
2022/09/21 00:14:13;;;;;;;;;22.00;21.40;;;;;14.61;61.52;99065.69;6235302;28;96621;-64
2022/09/21 00:17:16;;;;;;;;;22.00;21.00;;;;;14.62;61.19;99059.22;6244115;27;97106;-63
2022/09/21 00:20:22;;;;;;;;;21.00;18.00;;;;;14.53;60.77;99043.56;6262099;27;96579;-64
2022/09/21 00:23:25;;;;;;;;;21.60;20.00;;;;;14.69;60.72;99068.03;6262285;27;96509;-66
2022/09/21 00:26:29;;;;;;;;;18.80;16.20;;;;;14.60;60.77;99065.97;6260308;27;97425;-63
2022/09/21 00:29:34;;;;;;;;;21.00;20.00;;;;;14.54;60.81;99067.75;6235511;27;99813;-65
2022/09/21 00:32:38;;;;;;;;;21.75;20.00;;;;;14.39;61.36;99063.91;6261326;27;96731;-64
2022/09/21 00:35:43;;;;;;;;;19.60;18.00;;;;;14.42;61.65;99077.00;6248566;27;96849;-65
2022/09/21 00:38:50;;;;;;;;;23.00;21.00;;;;;14.46;61.58;99079.00;6242147;27;97036;-64
2022/09/21 00:41:53;;;;;;;;;16.60;15.00;;;;;14.41;61.70;99073.47;6242992;27;97167;-64
2022/09/21 00:44:56;;;;;;;;;21.00;18.00;;;;;14.45;61.48;99074.63;6261432;27;96853;-64
2022/09/21 00:48:00;;;;;;;;;20.00;18.00;;;;;14.41;61.55;99080.78;6225167;27;99481;-64
2022/09/21 00:51:08;;;;;;;;;17.40;16.40;;;;;14.39;61.90;99078.31;6259579;27;97638;-63
2022/09/21 00:54:19;;;;;;;;;20.60;19.60;;;;;14.39;61.73;99081.03;6262247;27;97748;-64
2022/09/21 00:57:26;;;;;;;;;22.00;20.25;;;;;14.42;61.72;99083.25;6254113;27;96476;-66
2022/09/21 01:00:29;;;;;;;;;19.40;18.00;;;;;14.42;61.85;99082.41;6260329;27;96563;-65
2022/09/21 01:03:32;;;;;;;;;20.60;19.40;;;;;14.26;62.16;99070.44;6259693;27;96662;-66
2022/09/21 01:06:38;;;;;;;;;19.00;18.00;;;;;14.37;62.14;99079.63;6249434;27;97465;-65
2022/09/21 01:09:44;;;;;;;;;21.75;18.00;;;;;14.33;62.88;99082.78;6252826;27;97682;-64
2022/09/21 01:13:01;;;;;;;;;23.00;19.00;;;;;14.27;62.62;99085.63;6242057;27;97803;-64
2022/09/21 01:16:11;;;;;;;;;17.40;17.40;;;;;14.25;62.77;99090.47;6260536;27;96830;-64
2022/09/21 01:19:33;;;;;;;;;18.00;17.00;;;;;14.26;62.69;99097.56;6260098;27;97493;-64
2022/09/21 01:22:55;;;;;;;;;20.00;17.50;;;;;14.24;62.61;99088.81;6227282;27;96838;-63
2022/09/21 01:26:12;;;;;;;;;19.50;16.50;;;;;14.27;62.72;99091.88;6259524;27;97261;-66
2022/09/21 01:29:22;;;;;;;;;22.40;20.40;;;;;14.25;62.88;99094.00;6240579;27;97898;-65
2022/09/21 01:32:30;;;;;;;;;21.00;19.00;;;;;14.28;62.71;99096.22;6234781;28;97600;-64
2022/09/21 01:35:37;;;;;;;;;19.00;17.40;;;;;14.29;62.45;99094.34;6216741;28;97489;-66
2022/09/21 01:38:48;;;;;;;;;19.25;17.25;;;;;14.36;62.38;99097.78;6249469;27;97479;-66
2022/09/21 01:41:54;;;;;;;;;19.00;17.50;;;;;14.26;62.63;99097.56;6229254;27;96675;-67
2022/09/21 01:45:02;;;;;;;;;19.00;18.00;;;;;14.32;62.30;99091.16;6253574;27;97459;-67
2022/09/21 01:48:05;;;;;;;;;22.60;19.40;;;;;14.26;62.36;99092.94;6261079;27;97379;-66
2022/09/21 01:51:13;;;;;;;;;20.00;16.00;;;;;14.28;62.42;99087.28;6261468;27;96954;-66
2022/09/21 01:54:22;;;;;;;;;20.00;18.80;;;;;14.31;62.32;99093.06;6261103;27;96749;-64
2022/09/21 01:57:39;;;;;;;;;19.20;18.20;;;;;14.25;62.31;99077.75;6260766;27;97596;-65
2022/09/21 02:00:47;;;;;;;;;21.00;19.60;;;;;14.31;62.38;99098.47;6242095;27;96752;-64
2022/09/21 02:03:55;;;;;;;;;21.00;18.60;;;;;14.32;62.49;99099.28;6260069;27;96476;-65
2022/09/21 02:06:59;;;;;;;;;20.60;19.00;;;;;14.37;62.44;99101.34;6242001;27;99423;-65
2022/09/21 02:10:07;;;;;;;;;21.80;20.00;;;;;14.44;62.34;99097.41;6243405;27;96841;-63
2022/09/21 02:13:13;;;;;;;;;24.00;21.60;;;;;14.46;62.30;99106.13;6262400;27;96621;-64
2022/09/21 02:16:32;;;;;;;;;20.60;19.60;;;;;14.20;62.58;99082.22;6246026;27;96864;-65
2022/09/21 02:19:45;;;;;;;;;19.75;17.75;;;;;14.30;62.84;99099.53;6245271;27;98410;-66
2022/09/21 02:22:59;;;;;;;;;23.20;21.20;;;;;14.41;62.54;99111.44;6264752;27;97689;-64
2022/09/21 02:26:07;;;;;;;;;23.40;20.60;;;;;14.46;62.55;99105.31;6265103;27;96439;-64
2022/09/21 02:29:19;;;;;;;;;23.40;22.00;;;;;14.43;62.66;99100.34;6265419;27;97217;-66
2022/09/21 02:32:33;;;;;;;;;22.00;21.00;;;;;14.50;62.36;99104.56;6227492;27;98414;-63
2022/09/21 02:35:44;;;;;;;;;23.75;21.75;;;;;14.52;62.26;99105.13;6229427;27;96687;-66
2022/09/21 02:38:51;;;;;;;;;26.60;22.00;;;;;14.49;62.27;99110.25;6263709;27;96733;-66
2022/09/21 02:42:04;;;;;;;;;24.00;22.40;;;;;14.54;62.01;99104.91;6246196;27;97589;-63
2022/09/21 02:45:13;;;;;;;;;26.00;20.20;;;;;14.60;61.71;99112.91;6263600;27;96647;-66
2022/09/21 02:48:24;;;;;;;;;25.40;20.40;;;;;14.70;61.66;99115.00;6245633;27;98365;-65
2022/09/21 02:51:31;;;;;;;;;23.00;21.00;;;;;14.67;61.60;99116.28;6245698;27;99629;-63
2022/09/21 02:54:38;;;;;;;;;24.50;23.50;;;;;14.66;61.26;99116.56;6259430;27;97479;-65
2022/09/21 02:57:41;;;;;;;;;26.60;23.40;;;;;14.51;61.58;99097.25;6228475;27;96755;-66
2022/09/21 03:00:44;;;;;;;;;30.00;24.00;;;;;14.64;61.54;99118.69;6263230;27;96697;-64
2022/09/21 03:03:49;;;;;;;;;21.00;20.80;;;;;14.51;61.70;99116.25;6244143;27;99449;-66
2022/09/21 03:06:53;;;;;;;;;23.67;21.67;;;;;14.54;61.83;99122.00;6246262;27;97666;-64
2022/09/21 03:09:56;;;;;;;;;23.00;22.80;;;;;14.57;61.59;99117.97;6244160;27;97186;-65
2022/09/21 03:13:03;;;;;;;;;23.60;22.00;;;;;14.59;61.59;99129.44;6261708;27;97433;-65
2022/09/21 03:16:07;;;;;;;;;22.50;19.75;;;;;14.68;61.41;99128.81;6226436;27;97012;-64
2022/09/21 03:19:12;;;;;;;;;22.00;21.00;;;;;14.74;61.17;99121.59;6261521;27;97131;-63
2022/09/21 03:22:16;;;;;;;;;25.00;21.20;;;;;14.72;60.98;99113.69;6248233;27;97440;-66
2022/09/21 03:25:20;;;;;;;;;22.40;21.40;;;;;14.72;61.04;99135.38;6241715;27;96673;-64
2022/09/21 03:28:23;;;;;;;;;21.00;20.00;;;;;14.70;60.92;99123.13;6226296;27;97991;-66
2022/09/21 03:31:26;;;;;;;;;21.00;19.80;;;;;14.79;60.97;99127.09;6261311;27;98109;-67
2022/09/21 03:34:33;;;;;;;;;21.75;19.75;;;;;14.80;60.58;99142.34;6262624;27;96747;-65
2022/09/21 03:37:37;;;;;;;;;22.00;20.00;;;;;14.79;60.53;99135.25;6263019;27;97390;-64
2022/09/21 03:40:45;;;;;;;;;21.60;19.60;;;;;14.70;60.34;99134.81;6245705;27;97896;-66
2022/09/21 03:43:48;;;;;;;;;22.00;20.50;;;;;14.73;60.63;99145.19;6239927;27;97854;-65
2022/09/21 03:46:52;;;;;;;;;22.00;19.60;;;;;14.72;60.49;99140.81;6261807;27;97362;-63
2022/09/21 03:49:57;;;;;;;;;24.40;22.40;;;;;14.66;60.68;99149.13;6244286;27;97427;-66
2022/09/21 03:53:00;;;;;;;;;22.60;22.00;;;;;14.70;60.67;99148.38;6240857;27;97432;-64
2022/09/21 03:56:04;;;;;;;;;24.25;21.25;;;;;14.72;60.54;99145.41;6239112;27;97502;-66
2022/09/21 03:59:08;;;;;;;;;24.20;23.00;;;;;14.70;60.77;99148.38;6240481;27;99488;-63
2022/09/21 04:02:16;;;;;;;;;28.00;24.00;;;;;14.73;60.92;99157.94;6236846;27;97714;-64
2022/09/21 04:05:21;;;;;;;;;22.00;18.60;;;;;14.76;60.91;99148.50;6260586;27;96739;-66
2022/09/21 04:08:25;;;;;;;;;24.33;22.00;;;;;14.58;60.87;99133.19;6256943;27;97237;-66
2022/09/21 04:11:30;;;;;;;;;22.33;21.33;;;;;14.70;60.82;99159.25;6243784;27;98447;-66
2022/09/21 04:14:33;;;;;;;;;24.75;22.00;;;;;14.61;61.21;99157.94;6262474;27;96555;-66
2022/09/21 04:17:37;;;;;;;;;25.25;23.25;;;;;14.66;61.25;99160.75;6261133;27;97607;-63
2022/09/21 04:20:41;;;;;;;;;24.20;21.00;;;;;14.64;61.19;99164.81;6242681;27;97982;-63
2022/09/21 04:23:45;;;;;;;;;26.40;23.00;;;;;14.65;60.87;99166.47;6241623;27;97143;-66
2022/09/21 04:26:49;;;;;;;;;25.25;22.00;;;;;14.67;61.09;99178.72;6242829;27;98330;-63
2022/09/21 04:29:52;;;;;;;;;28.80;23.40;;;;;14.69;61.01;99173.03;6257073;27;97374;-65
2022/09/21 04:32:56;;;;;;;;;24.00;22.00;;;;;14.72;60.87;99175.28;6260283;27;98567;-67
2022/09/21 04:36:01;;;;;;;;;21.25;20.00;;;;;14.68;60.79;99176.81;6234789;27;97825;-64
2022/09/21 04:39:05;;;;;;;;;25.40;22.60;;;;;14.68;61.09;99174.94;6257731;27;97693;-64
2022/09/21 04:42:09;;;;;;;;;24.00;21.00;;;;;14.74;60.90;99171.25;6231005;27;98317;-67
2022/09/21 04:45:13;;;;;;;;;26.20;24.00;;;;;14.60;60.53;99148.19;6253502;27;97332;-64
2022/09/21 04:48:16;;;;;;;;;25.00;21.80;;;;;14.74;60.58;99179.41;6257968;27;97390;-66
2022/09/21 04:51:21;;;;;;;;;23.67;21.00;;;;;14.65;60.66;99159.16;6255844;27;97309;-64
2022/09/21 04:54:24;;;;;;;;;27.00;24.00;;;;;14.73;60.89;99179.63;6259034;27;96937;-64
2022/09/21 04:57:28;;;;;;;;;30.00;25.40;;;;;14.72;60.91;99180.69;6216771;27;100265;-66
2022/09/21 05:00:31;;;;;;;;;23.00;20.60;;;;;14.84;60.72;99184.22;6259962;27;96329;-64
2022/09/21 05:03:35;;;;;;;;;25.00;22.80;;;;;14.82;60.78;99185.50;6240320;27;99414;-66
2022/09/21 05:06:41;;;;;;;;;25.00;24.00;;;;;14.79;60.77;99180.56;6240303;27;97262;-66
2022/09/21 05:13:05;;;;;;;;;26.00;24.50;;;;;14.81;60.41;99178.44;6229594;27;97883;-66
2022/09/21 05:16:08;;;;;;;;;26.00;24.00;;;;;14.87;60.60;99186.41;6259074;27;97249;-67
2022/09/21 05:19:12;;;;;;;;;24.80;22.20;;;;;14.84;60.60;99186.91;6255634;27;97411;-67
2022/09/21 05:22:17;;;;;;;;;23.50;21.00;;;;;14.93;60.28;99193.59;6241209;27;97963;-66
2022/09/21 05:25:23;;;;;;;;;26.40;24.40;;;;;14.95;60.31;99193.38;6225857;27;96672;-68
2022/09/21 05:28:27;;;;;;;;;29.50;26.75;;;;;14.98;60.13;99199.13;6259148;27;97551;-62
2022/09/21 05:31:39;;;;;;;;;26.60;23.80;;;;;14.99;60.22;99202.69;6225152;27;96812;-65
2022/09/21 05:34:53;;;;;;;;;23.40;22.40;;;;;14.96;60.25;99205.84;6260082;27;98056;-66
2022/09/21 05:38:04;;;;;;;;;25.20;23.20;;;;;15.03;60.05;99201.94;6258145;27;97033;-62
2022/09/21 05:41:08;;;;;;;;;28.00;23.80;;;;;15.05;60.03;99201.72;6261124;27;96828;-65
2022/09/21 05:44:14;;;;;;;;;22.80;20.80;;;;;15.00;60.07;99205.13;6242366;27;97073;-65
2022/09/21 05:47:25;;;;;;;;;22.00;21.80;;;;;15.14;59.68;99211.94;6265526;27;97502;-64
2022/09/21 05:50:36;;;;;;;;;24.60;22.00;;;;;15.16;59.46;99214.41;6246169;27;97296;-62
2022/09/21 05:53:53;;;;;;;;;27.60;24.00;;;;;15.22;59.38;99210.72;6260047;27;97468;-63
2022/09/21 05:57:05;;;;;;;;;21.75;20.00;;;;;15.21;59.03;99209.06;6250843;27;97863;-62
2022/09/21 06:00:16;;;;;;;;;27.00;23.40;;;;;15.10;59.22;99210.75;6240226;27;97988;-62
2022/09/21 06:03:29;;;;;;;;;19.60;19.20;;;;;14.99;59.40;99214.38;6237415;27;96708;-63
2022/09/21 06:06:33;;;;;;;;;25.00;21.40;;;;;15.10;59.58;99218.91;6261273;27;96896;-64
2022/09/21 06:09:38;;;;;;;;;22.00;19.50;;;;;15.13;59.50;99220.31;6261137;27;97432;-63
2022/09/21 06:12:45;;;;;;;;;19.50;18.00;;;;;15.03;59.65;99225.56;6252656;27;97425;-66
2022/09/21 06:15:48;;;;;;;;;21.75;20.00;;;;;15.14;59.47;99219.25;6241022;27;97480;-64
2022/09/21 06:18:52;;;;;;;;;24.40;20.00;;;;;15.18;59.48;99217.69;6244653;27;97557;-63
2022/09/21 06:21:55;;;;;;;;;26.00;23.00;;;;;15.26;59.32;99230.06;6252086;27;97466;-63
2022/09/21 06:25:00;;;;;;;;;22.00;18.00;;;;;15.34;59.39;99224.25;6239648;27;98111;-63
2022/09/21 06:28:04;;;;;;;;;21.00;18.00;;;;;15.42;59.51;99224.66;6225592;27;99401;-61
2022/09/21 06:31:07;;;;;;;;;24.00;20.40;;;;;15.50;59.38;99226.13;6255045;27;97560;-63
2022/09/21 06:34:10;;;;;;;;;23.00;21.00;;;;;15.59;59.08;99228.25;6256326;27;97253;-62
2022/09/21 06:37:13;;;;;;;;;23.75;20.75;;;;;15.53;59.12;99223.00;6242422;27;96861;-63
2022/09/21 06:40:18;;;;;;;;;25.00;22.00;;;;;15.47;59.09;99213.88;6259676;27;96734;-63
2022/09/21 06:43:22;;;;;;;;;21.00;19.00;;;;;15.51;58.83;99230.53;6245407;27;96804;-62
2022/09/21 06:46:25;;;;;;;;;22.00;19.00;;;;;15.55;59.22;99243.41;6242849;27;97774;-63
2022/09/21 06:49:28;;;;;;;;;21.40;19.20;;;;;15.30;58.79;99174.16;6237710;27;97276;-64
2022/09/21 06:52:32;;;;;;;;;21.20;17.20;;;;;15.70;58.56;99242.84;6238550;27;98760;-62
2022/09/21 06:55:37;;;;;;;;;20.80;19.40;;;;;15.79;58.49;99243.25;6259205;27;97169;-62
2022/09/21 06:58:40;;;;;;;;;20.50;19.00;;;;;15.81;57.98;99241.13;6255636;27;97467;-61
2022/09/21 07:01:44;;;;;;;;;20.20;17.00;;;;;15.85;57.85;99251.25;6240019;27;97574;-62
2022/09/21 07:04:47;;;;;;;;;20.00;19.00;;;;;15.91;57.84;99252.16;6226428;27;98423;-63
2022/09/21 07:07:50;;;;;;;;;21.40;20.00;;;;;15.88;57.68;99253.47;6263886;27;96477;-61
2022/09/21 07:11:00;;;;;;;;;22.60;18.00;;;;;15.88;57.91;99258.09;6263780;27;96628;-61
2022/09/21 07:14:04;;;;;;;;;22.00;20.00;;;;;15.91;58.08;99258.44;6263717;27;97138;-64
2022/09/21 07:17:07;;;;;;;;;17.80;17.20;;;;;15.95;57.62;99248.69;6250961;27;97527;-64
2022/09/21 07:20:17;;;;;;;;;22.00;19.50;;;;;15.75;57.79;99253.78;6243898;27;97716;-63
2022/09/21 07:23:21;;;;;;;;;19.00;18.00;;;;;15.79;57.83;99252.22;6233546;27;98439;-61
2022/09/21 07:26:26;;;;;;;;;20.00;19.00;;;;;15.81;57.73;99249.28;6227809;27;98740;-61
2022/09/21 07:29:30;;;;;;;;;21.20;19.00;;;;;15.99;57.57;99263.44;6263211;27;97531;-63
2022/09/21 07:32:34;;;;;;;;;24.00;19.40;;;;;16.05;57.30;99261.63;6244092;27;96647;-64
2022/09/21 07:35:38;;;;;;;;;21.50;18.75;;;;;16.08;57.24;99263.84;6259419;27;96878;-61
2022/09/21 07:38:42;;;;;;;;;20.40;18.40;;;;;16.09;57.05;99267.38;6251206;27;97497;-61
2022/09/21 07:41:47;;;;;;;;;21.60;19.40;;;;;16.11;57.12;99263.38;6248167;27;97437;-62
2022/09/21 07:44:52;;;;;;;;;20.80;19.00;;;;;16.22;57.03;99278.78;6238489;27;97082;-62
2022/09/21 07:48:07;;;;;;;;;17.40;16.80;;;;;16.31;56.69;99271.00;6259333;27;97469;-64
2022/09/21 07:51:12;;;;;;;;;21.40;17.00;;;;;16.39;56.55;99270.56;6241903;27;97646;-63
2022/09/21 07:54:15;;;;;;;;;15.60;15.00;;;;;16.54;56.22;99270.78;6262671;27;96558;-63
2022/09/21 08:00:45;;;;;;;;;18.50;16.00;;;;;16.66;55.91;99279.72;6130339;28;97977;-63
2022/09/21 08:03:49;;;;;;;;;17.00;16.00;;;;;16.80;55.65;99277.44;6105434;28;96782;-64
2022/09/21 08:06:52;;;;;;;;;18.40;16.40;;;;;16.74;55.49;99287.44;6119046;28;97169;-63
2022/09/21 08:09:57;;;;;;;;;19.00;14.80;;;;;16.80;55.34;99278.28;6132309;28;97979;-63
2022/09/21 08:13:02;;;;;;;;;15.20;13.20;;;;;16.93;55.14;99277.06;6113719;28;96831;-63
2022/09/21 08:16:06;;;;;;;;;15.40;14.00;;;;;16.93;54.78;99278.97;6123122;28;96815;-62
2022/09/21 08:19:10;;;;;;;;;14.20;12.20;;;;;16.82;54.99;99287.00;6132284;28;97466;-63
2022/09/21 08:22:14;;;;;;;;;15.75;15.00;;;;;16.81;55.25;99288.06;6134981;28;97650;-63
2022/09/21 08:25:21;;;;;;;;;17.00;14.00;;;;;16.76;55.79;99288.00;6135615;28;96734;-62
2022/09/21 08:28:25;;;;;;;;;14.00;13.40;;;;;16.78;56.04;99287.75;6108282;28;99711;-63
2022/09/21 08:31:29;;;;;;;;;15.00;13.00;;;;;16.76;56.43;99282.56;6130570;28;97077;-63
2022/09/21 08:34:33;;;;;;;;;15.00;14.50;;;;;16.67;56.31;99284.06;6117330;28;98039;-63
2022/09/21 08:37:37;;;;;;;;;15.20;13.00;;;;;16.65;56.96;99280.78;6183596;27;97441;-64
2022/09/21 08:40:40;;;;;;;;;16.00;14.00;;;;;16.77;56.75;99295.09;6261832;27;96723;-62
2022/09/21 08:43:49;;;;;;;;;16.75;15.00;;;;;16.88;56.69;99294.16;6251933;27;96478;-64
2022/09/21 08:47:03;;;;;;;;;16.00;14.00;;;;;16.89;56.72;99292.28;6261706;27;96574;-63
2022/09/21 08:50:23;;;;;;;;;16.00;14.00;;;;;16.82;56.74;99294.34;6240502;27;98433;-64
2022/09/21 08:53:32;;;;;;;;;18.00;16.00;;;;;16.81;57.03;99276.38;6226915;27;96834;-63
2022/09/21 08:56:36;;;;;;;;;16.00;15.20;;;;;17.02;56.65;99296.50;6261668;27;96524;-62
2022/09/21 09:00:02;;;;;;;;;17.60;15.60;;;;;17.03;56.58;99296.25;6235101;27;99508;-65
2022/09/21 09:03:21;;;;;;;;;16.00;15.00;;;;;17.04;56.58;99291.63;6233492;27;97411;-63
2022/09/21 09:06:33;;;;;;;;;15.25;14.75;;;;;17.11;56.66;99292.25;6243196;27;97643;-64
2022/09/21 09:09:53;;;;;;;;;14.60;12.00;;;;;17.22;56.32;99303.03;6237835;27;99421;-63
2022/09/21 09:13:12;;;;;;;;;18.40;15.60;;;;;17.28;56.20;99304.75;6259769;27;97003;-65
2022/09/21 09:16:28;;;;;;;;;18.00;16.00;;;;;17.36;56.23;99283.56;6241563;27;96671;-63
2022/09/21 09:19:40;;;;;;;;;14.50;12.50;;;;;17.57;55.78;99294.44;6257045;27;97409;-62
2022/09/21 09:22:48;;;;;;;;;15.00;14.00;;;;;17.73;55.63;99296.25;6258355;27;97284;-61
2022/09/21 09:25:56;;;;;;;;;13.20;11.20;;;;;17.73;55.10;99279.91;6237701;27;97316;-62
2022/09/21 09:29:06;;;;;;;;;14.00;13.40;;;;;17.87;54.41;99296.66;6258803;27;96751;-62
2022/09/21 09:32:14;;;;;;;;;12.00;11.00;;;;;17.93;54.18;99292.91;6257576;27;97522;-63
2022/09/21 09:35:27;;;;;;;;;13.40;12.40;;;;;17.84;53.86;99299.88;6238815;27;98610;-63
2022/09/21 09:38:37;;;;;;;;;12.00;11.00;;;;;17.85;54.16;99303.44;6259142;27;96552;-62
2022/09/21 09:42:07;;;;;;;;;11.60;10.20;;;;;17.75;53.99;99301.44;6239371;27;98287;-62
2022/09/21 09:45:39;;;;;;;;;10.00;9.00;;;;;17.71;53.92;99297.59;6216548;27;97742;-63
2022/09/21 09:49:02;;;;;;;;;10.00;9.00;;;;;17.61;53.81;99297.47;6258381;27;96967;-63
2022/09/21 09:52:08;;;;;;;;;10.00;9.00;;;;;17.51;53.76;99298.16;6243131;27;96963;-62
2022/09/21 09:55:19;;;;;;;;;9.00;8.00;;;;;17.45;54.17;99298.38;6236200;27;97815;-64
2022/09/21 09:58:25;;;;;;;;;10.00;8.80;;;;;17.41;54.54;99294.50;6259435;27;97474;-62
2022/09/21 10:01:41;;;;;;;;;6.00;6.00;;;;;17.45;54.53;99301.91;6219642;27;97224;-63
2022/09/21 10:05:02;;;;;;;;;7.20;7.00;;;;;17.50;54.53;99295.69;6258051;27;97363;-62
2022/09/21 10:08:29;;;;;;;;;7.00;6.60;;;;;17.43;54.65;99282.28;6257458;27;97239;-62
2022/09/21 10:11:38;;;;;;;;;7.00;7.00;;;;;17.58;54.26;99300.69;6257260;27;98109;-64
2022/09/21 10:14:49;;;;;;;;;7.25;7.25;;;;;17.59;54.13;99305.13;6258383;27;96547;-63
2022/09/21 10:18:02;;;;;;;;;6.40;5.60;;;;;17.69;54.37;99297.84;6259024;27;98064;-63
2022/09/21 10:21:09;;;;;;;;;7.00;7.00;;;;;17.77;53.86;99299.28;6259205;27;96660;-61
2022/09/21 10:24:22;;;;;;;;;6.00;6.00;;;;;17.74;53.24;99297.06;6259332;27;97581;-61
2022/09/21 10:27:28;;;;;;;;;5.80;5.20;;;;;17.74;52.65;99297.88;6258539;27;97479;-60
2022/09/21 10:30:34;;;;;;;;;4.40;4.00;;;;;17.59;nan;99303.19;6255616;27;97608;-61
2022/09/21 10:33:48;;;;;;;;;6.00;6.00;;;;;17.64;53.07;99302.44;6227084;27;96709;-61
2022/09/21 10:36:54;;;;;;;;;6.00;5.75;;;;;17.65;53.00;99293.16;6260712;27;97379;-61
2022/09/21 10:39:58;;;;;;;;;5.00;5.00;;;;;17.72;52.77;99310.97;6256884;27;97453;-62
2022/09/21 10:43:02;;;;;;;;;5.00;5.00;;;;;17.82;52.93;99302.06;6263646;27;97157;-63
2022/09/21 10:46:05;;;;;;;;;6.40;6.00;;;;;17.90;53.01;99304.31;6263318;27;96755;-62
2022/09/21 10:49:17;;;;;;;;;6.00;5.00;;;;;17.94;53.19;99308.16;6231602;27;98310;-63
2022/09/21 10:52:24;;;;;;;;;5.00;5.00;;;;;18.07;53.17;99296.84;6245264;27;96741;-61
2022/09/21 10:55:30;;;;;;;;;7.00;7.00;;;;;18.07;52.50;99294.09;6233356;27;96656;-61
2022/09/21 10:58:35;;;;;;;;;7.60;6.00;;;;;18.14;51.92;99294.69;6257976;27;96892;-61
2022/09/21 11:01:45;;;;;;;;;6.00;6.00;;;;;18.17;51.65;99283.28;6256998;27;96648;-61
2022/09/21 11:04:53;;;;;;;;;7.00;7.00;;;;;18.26;51.16;99299.97;6253619;27;96795;-61
2022/09/21 11:08:04;;;;;;;;;7.80;7.80;;;;;18.15;51.07;99290.88;6263432;27;96567;-61
2022/09/21 11:11:21;;;;;;;;;9.80;8.20;;;;;18.20;51.27;99292.84;6263117;27;96570;-61
2022/09/21 11:14:41;;;;;;;;;7.00;6.60;;;;;18.33;50.60;99294.28;6257618;27;96646;-64
2022/09/21 11:17:49;;;;;;;;;6.50;5.00;;;;;18.39;50.21;99291.34;6257081;27;96630;-64
2022/09/21 11:20:58;;;;;;;;;5.00;5.00;;;;;18.56;49.72;99292.03;6262282;27;97458;-61
2022/09/21 11:24:14;;;;;;;;;7.00;6.00;;;;;18.69;49.90;99281.72;6262361;27;97456;-62
2022/09/21 11:27:24;;;;;;;;;5.60;5.00;;;;;18.68;50.01;99280.91;6228406;27;97260;-62
2022/09/21 11:30:38;;;;;;;;;5.00;4.80;;;;;18.66;50.05;99294.00;6248433;27;97088;-62
2022/09/21 11:34:04;;;;;;;;;5.60;5.40;;;;;18.64;50.42;99293.44;6261148;27;97483;-64
2022/09/21 11:37:18;;;;;;;;;10.75;10.00;;;;;18.57;50.31;99290.94;6243808;27;97519;-65
2022/09/21 11:41:00;;;;;;;;;14.00;12.00;;;;;18.51;50.83;99293.88;6237573;27;97826;-63
2022/09/21 11:44:37;;;;;;;;;10.50;10.00;;;;;18.50;51.59;99290.31;6234093;27;97423;-62
2022/09/21 11:48:00;;;;;;;;;7.50;6.50;;;;;18.95;50.63;99283.50;6217628;27;97163;-64
2022/09/21 11:51:20;;;;;;;;;8.60;7.00;;;;;19.64;49.67;99285.94;6240490;27;98849;-63
2022/09/21 11:55:05;;;;;;;;;7.40;7.00;;;;;20.73;47.07;99282.59;6227917;27;98713;-62
2022/09/21 11:58:17;;;;;;;;;8.00;7.00;;;;;21.84;45.50;99290.34;6250486;27;97531;-62
2022/09/21 12:01:39;;;;;;;;;10.00;9.00;;;;;22.34;43.13;99280.88;6324730;22;98349;-65
2022/09/21 12:04:49;;;;;;;;;9.00;8.80;;;;;22.48;41.84;99283.75;6150746;28;99108;-69
2022/09/21 12:08:13;;;;;;;;;8.00;8.00;;;;;22.57;41.58;99275.72;6135611;28;96659;-61
2022/09/21 12:11:31;;;;;;;;;10.25;9.00;;;;;22.64;41.41;99270.69;6161984;28;98367;-69
2022/09/21 12:14:43;;;;;;;;;12.00;10.00;;;;;23.12;40.43;99263.28;6165172;28;96884;-64
2022/09/21 12:17:55;;;;;;;;;9.00;8.00;;;;;23.19;39.78;99261.00;6160219;28;96574;-63
2022/09/21 12:21:05;;;;;;;;;11.00;10.00;;;;;23.52;39.33;99257.25;6158986;28;96484;-64
2022/09/21 12:24:16;;;;;;;;;9.33;8.00;;;;;24.40;37.90;99253.63;6162163;28;96540;-65
2022/09/21 12:27:27;;;;;;;;;8.00;7.75;;;;;24.85;35.85;99260.22;6158259;28;96535;-64
2022/09/21 12:30:34;;;;;;;;;10.00;9.00;;;;;24.81;35.02;99255.63;6166901;28;97572;-64
2022/09/21 12:33:42;;;;;;;;;9.00;8.40;;;;;24.88;34.82;99245.84;6184393;28;96706;-61
2022/09/21 12:36:55;;;;;;;;;8.00;8.00;;;;;24.77;35.34;99251.84;6186908;28;97097;-72
2022/09/21 12:40:05;;;;;;;;;6.60;6.60;;;;;25.30;33.93;99252.16;6183954;28;96287;-63
2022/09/21 12:43:26;;;;;;;;;6.00;6.00;;;;;25.60;34.11;99245.16;6186126;28;96635;-63
2022/09/21 12:46:36;;;;;;;;;7.00;6.60;;;;;25.32;33.30;99247.13;6185282;28;96267;-64
2022/09/21 12:49:44;;;;;;;;;7.00;7.00;;;;;25.05;33.56;99250.75;6192412;28;96972;-71
2022/09/21 12:52:49;;;;;;;;;7.00;6.80;;;;;24.67;34.47;99243.78;6194569;28;97083;-60
2022/09/21 12:56:02;;;;;;;;;7.20;7.20;;;;;24.43;35.06;99242.03;6188180;28;96862;-63
2022/09/21 12:59:26;;;;;;;;;9.00;8.00;;;;;24.23;35.76;99241.56;6187375;28;96534;-63
2022/09/21 13:02:35;;;;;;;;;7.60;7.00;;;;;23.93;35.26;99243.69;6191239;28;96235;-63
2022/09/21 13:05:53;;;;;;;;;9.00;8.00;;;;;23.60;35.81;99242.03;6190725;28;97816;-61
2022/09/21 13:09:00;;;;;;;;;6.00;5.75;;;;;23.16;36.81;99242.34;6185532;28;96849;-60
2022/09/21 13:12:11;;;;;;;;;10.80;9.00;;;;;22.88;35.81;99231.13;6189946;28;96982;-65
2022/09/21 13:15:22;;;;;;;;;6.00;6.00;;;;;22.84;36.68;99235.56;6189931;28;97433;-63
2022/09/21 13:18:31;;;;;;;;;5.00;5.00;;;;;22.74;36.96;99224.69;6186652;28;96505;-61
2022/09/21 13:21:38;;;;;;;;;7.00;6.75;;;;;22.55;36.41;99225.72;6192327;28;96796;-62
2022/09/21 13:24:44;;;;;;;;;7.67;6.67;;;;;22.36;37.47;99233.91;6185867;28;97058;-62
2022/09/21 13:28:03;;;;;;;;;5.00;5.00;;;;;22.11;37.25;99226.72;6198232;28;97209;-60
2022/09/21 13:31:51;;;;;;;;;7.00;6.00;;;;;21.82;38.40;99232.16;6195431;28;96426;-61
2022/09/21 13:35:43;;;;;;;;;8.00;7.00;;;;;21.45;39.22;99224.44;6191090;28;96567;-64
2022/09/21 13:39:14;;;;;;;;;5.50;5.50;;;;;21.21;40.35;99223.50;6150761;28;98477;-61
2022/09/21 13:42:45;;;;;;;;;8.20;8.00;;;;;20.97;41.27;99222.50;6185211;28;96255;-70
2022/09/21 13:45:52;;;;;;;;;7.25;6.00;;;;;20.76;42.21;99224.53;6190627;28;96499;-62
2022/09/21 13:48:55;;;;;;;;;7.80;6.80;;;;;20.59;42.38;99218.53;6190931;28;96556;-70
2022/09/21 13:52:03;;;;;;;;;5.40;5.00;;;;;20.42;42.96;99210.66;6182441;28;96754;-70
2022/09/21 13:55:27;;;;;;;;;6.00;6.00;;;;;20.23;43.32;99221.34;6188148;28;96244;-61
2022/09/21 13:58:35;;;;;;;;;7.00;7.00;;;;;20.16;43.91;99217.25;6193135;28;96761;-59
2022/09/21 14:01:38;;;;;;;;;4.00;3.40;;;;;20.15;43.86;99230.13;6196735;28;96433;-63
2022/09/21 14:04:51;;;;;;;;;5.00;5.00;;;;;20.17;44.19;99216.97;6188817;28;96371;-60
2022/09/21 14:08:00;;;;;;;;;4.00;4.00;;;;;20.24;44.38;99217.50;6192709;28;97491;-62
2022/09/21 14:11:07;;;;;;;;;5.00;5.00;;;;;20.44;44.24;99204.88;6194872;28;96565;-61
2022/09/21 14:14:23;;;;;;;;;6.00;5.00;;;;;20.56;43.99;99203.50;6178570;28;96396;-61
2022/09/21 14:17:36;;;;;;;;;5.00;4.00;;;;;20.86;43.72;99194.34;6193970;28;97178;-69
2022/09/21 14:20:41;;;;;;;;;4.00;4.00;;;;;21.20;42.56;99188.16;6193081;28;96351;-60
2022/09/21 14:24:09;;;;;;;;;5.00;4.00;;;;;21.51;41.63;99178.59;6177982;28;96758;-58
2022/09/21 14:27:20;;;;;;;;;6.00;5.40;;;;;21.86;41.11;99181.06;6186233;28;96330;-59
2022/09/21 14:30:26;;;;;;;;;5.75;5.00;;;;;21.83;41.58;99180.81;6191957;28;97346;-62
2022/09/21 14:33:40;;;;;;;;;5.00;5.00;;;;;21.79;41.69;99177.03;6192834;28;96308;-61
2022/09/21 14:36:48;;;;;;;;;8.00;8.00;;;;;21.63;41.73;99178.25;6193019;28;96701;-59
2022/09/21 14:39:54;;;;;;;;;5.00;5.00;;;;;21.34;41.91;99208.38;6190784;28;96987;-62
2022/09/21 14:43:02;;;;;;;;;5.40;4.00;;;;;21.06;44.87;99216.16;6189910;28;97511;-63